INFORMACIÓN METAR y TAF
METAR FOR LEJR
ADDS - METARS form results

(0956 UTC 26 October 2020)
Data provider http://aviationweather.gov/metar/data/
 
METAR text: LEJR 260930Z 33011KT 9999 FEW025 16/11 Q1022
Conditions at: LEJR (JEREZ (CIV/MIL) , ES) observed 0930 UTC 26 October 2020
Temperature: 16.0°C (61°F)
Dewpoint: 11.0°C (52°F) [RH = 72%]
Pressure (altimeter): 30.18 inches Hg (1022.0 mb)
Winds: from the NNW (330 degrees) at 13 MPH (11 knots; 5.7 m/s)
Visibility: 6 or more miles (10+ km)
Ceiling: at least 12,000 feet AGL
Clouds: few clouds at 2500 feet AGL
Weather: no significant weather observed at this time

METAR text: LEJR 260900Z 32008KT CAVOK 16/13 Q1022
Conditions at: LEJR (JEREZ (CIV/MIL) , ES) observed 0900 UTC 26 October 2020
Temperature: 16.0°C (61°F)
Dewpoint: 13.0°C (55°F) [RH = 82%]
Pressure (altimeter): 30.18 inches Hg (1022.0 mb)
Winds: from the NW (320 degrees) at 9 MPH (8 knots; 4.1 m/s)
Visibility: 6 or more miles (10+ km)
Ceiling: ceiling and visibility are OK
Clouds: unknown
Weather: no significant weather observed at this time

Forecast for: LEJR (JEREZ (CIV/MIL) , ES)
Text: TAF LEJR 260500Z 2606/2706 32006KT 9999 FEW020 TX20/2614Z TN09/2606Z
Forecast period: 0600 UTC 26 October 2020 to 0600 UTC 27 October 2020
Forecast type: FROM: standard forecast or significant change
Winds: from the NW (320 degrees) at 7 MPH (6 knots; 3.1 m/s)
Visibility: 6 or more miles (10+ km)
Ceiling: at least 12,000 feet AGL
Clouds: few clouds at 2000 feet AGL
Weather: no significant weather forecast for this period
Text: PROB30
Forecast period: 0600 to 0900 UTC 26 October 2020
Forecast type: TEMPORARY: The following changes expected for less than half the time period
Visibility: 2.49 miles (4.01 km)
Ceiling: unknown
Clouds: missing
Weather: BR  (mist)

 MAPA DE AEROPUERTO

 INFORMACIÓN DE PISTA
Pista 02 Longitud 7546 ft Ancho 148 ft
Elevación 68 ft Umbral desplazado 0 ft Rumbo de pista 21
Pista 20 Longitud 7546 ft Ancho 148 ft
Elevación 93 ft Umbral desplazado 0 ft Rumbo de pista 201

 FRECUANCIAS DEL AEROPUERTO
Tipo APP Nombre APP Frecuencia 128.5 MHZ
Tipo GND Nombre GND Frecuencia 121.6 MHZ
Tipo TWR Nombre TWR Frecuencia 118.55 MHZ

 RADIO AYUDAS DEL AEROPUERTO
Tipo NDB Nombre Jerez Frecuencia 433 KHZ
Tipo VOR-DME Nombre Jerez Frecuencia 113000 KHZ



Powered by Virtual Airlines Manager [v2.6.2]